METAR AND TAF INFORMATION
METAR FOR LFPO
ADDS - METARS form results

(1406 UTC 20 April 2018)
Data provider http://aviationweather.gov/adds/metars/
 
METAR text: LFPO 201400Z VRB03KT CAVOK 27/11 Q1022 NOSIG
Conditions at: LFPO (PARIS/ORLY , FR) observed 1400 UTC 20 April 2018
Temperature: 27.0°C (81°F)
Dewpoint: 11.0°C (52°F) [RH = 37%]
Pressure (altimeter): 30.18 inches Hg (1022.0 mb)
Winds: variable direction winds at 3 MPH (3 knots; 1.6 m/s)
Visibility: 6 or more miles (10+ km)
Ceiling: ceiling and visibility are OK
Clouds: unknown
Weather: no significant weather observed at this time

METAR text: LFPO 201330Z VRB05KT CAVOK 28/13 Q1022 NOSIG
Conditions at: LFPO (PARIS/ORLY , FR) observed 1330 UTC 20 April 2018
Temperature: 28.0°C (82°F)
Dewpoint: 13.0°C (55°F) [RH = 40%]
Pressure (altimeter): 30.18 inches Hg (1022.0 mb)
Winds: variable direction winds at 6 MPH (5 knots; 2.6 m/s)
Visibility: 6 or more miles (10+ km)
Ceiling: ceiling and visibility are OK
Clouds: unknown
Weather: no significant weather observed at this time

Forecast for: LFPO (PARIS/ORLY , FR)
Text: TAF LFPO 201100Z 2012/2118 VRB03KT CAVOK
Forecast period: 1200 UTC 20 April 2018 to 1800 UTC 21 April 2018
Forecast type: FROM: standard forecast or significant change
Winds: variable direction winds at 3 MPH (3 knots; 1.6 m/s)
Visibility: 6 or more miles (10+ km)
Clouds: not forecast
Weather: NSW  (no significant weather)

 AIRPORT MAP

 RUNWAY INFORMATION
Runway 02 Runway length 7874 ft Runway width 197 ft
Runway elevation 287 ft Runway displaced threshold 0 ft Runway heading 18
Runway 20 Runway length 7874 ft Runway width 197 ft
Runway elevation 287 ft Runway displaced threshold 0 ft Runway heading 198
Runway 06 Runway length 11975 ft Runway width 148 ft
Runway elevation 283 ft Runway displaced threshold 984 ft Runway heading 62
Runway 24 Runway length 11975 ft Runway width 148 ft
Runway elevation 284 ft Runway displaced threshold 0 ft Runway heading 242
Runway 08 Runway length 10892 ft Runway width 148 ft
Runway elevation 277 ft Runway displaced threshold 0 ft Runway heading 74
Runway 26 Runway length 10892 ft Runway width 148 ft
Runway elevation 287 ft Runway displaced threshold 1427 ft Runway heading 254

 AIRPORT FREQUENCIES
Type APP Name APP Frequency 123.875 MHZ
Type ATIS Name ATIS Frequency 131.35 MHZ
Type DEP Name DEP Frequency 127.75 MHZ
Type GND Name GND Frequency 121.7 MHZ
Type PFLT Name PREFLIGHT Frequency 121.05 MHZ
Type TWR Name TWR Frequency 118.7 MHZ

 AIRPORT NEAR NAVIGATION AIDS
Type VOR-DME Name Orly Frequency 111200 KHZ



Powered by Virtual Airlines Manager [v2.6.2]